createdAt,value
2022-10-17T00:01:04.866Z,23.10
2022-10-17T00:03:36.647Z,23.20
2022-10-17T00:06:09.648Z,23.20
2022-10-17T00:08:43.345Z,23.20
2022-10-17T00:11:16.400Z,23.30
2022-10-17T00:13:48.515Z,23.30
2022-10-17T00:16:21.664Z,23.30
2022-10-17T00:18:53.023Z,23.40
2022-10-17T00:21:25.752Z,23.40
2022-10-17T00:23:56.849Z,23.40
2022-10-17T00:26:28.861Z,23.50
2022-10-17T00:28:59.579Z,23.50
2022-10-17T00:31:32.227Z,23.50
2022-10-17T00:34:02.743Z,23.50
2022-10-17T00:36:33.318Z,23.60
2022-10-17T00:39:06.211Z,23.60
2022-10-17T00:41:37.313Z,23.70
2022-10-17T00:44:10.600Z,23.80
2022-10-17T00:46:41.908Z,23.80
2022-10-17T00:49:14.208Z,23.80
2022-10-17T00:51:47.243Z,23.90
2022-10-17T00:54:20.375Z,23.90
2022-10-17T00:56:51.852Z,24.00
2022-10-17T00:59:23.936Z,24.00
2022-10-17T01:01:57.537Z,24.00
2022-10-17T01:04:28.449Z,24.00
2022-10-17T01:06:59.076Z,24.10
2022-10-17T01:09:30.271Z,24.10
2022-10-17T01:12:03.431Z,24.20
2022-10-17T01:14:36.738Z,24.20
2022-10-17T01:17:09.848Z,24.20
2022-10-17T01:19:42.854Z,24.30
2022-10-17T01:22:14.574Z,24.30
2022-10-17T01:24:47.755Z,24.40
2022-10-17T01:27:21.059Z,24.40
2022-10-17T01:30:00.695Z,24.40
2022-10-17T01:32:33.996Z,24.50
2022-10-17T01:35:07.156Z,24.60
2022-10-17T01:37:40.798Z,24.60
2022-10-17T01:40:12.954Z,24.70
2022-10-17T01:42:46.966Z,24.70
2022-10-17T01:45:20.043Z,24.80
2022-10-17T01:47:53.080Z,24.80
2022-10-17T01:50:26.150Z,24.80
2022-10-17T01:52:59.430Z,24.90
2022-10-17T01:55:32.435Z,24.90
2022-10-17T01:58:05.445Z,25.00
2022-10-17T02:00:39.045Z,25.00
2022-10-17T02:03:14.055Z,25.10
2022-10-17T02:05:46.314Z,25.10
2022-10-17T02:08:18.357Z,25.20
2022-10-17T02:10:51.421Z,25.30
2022-10-17T02:13:22.839Z,25.30
2022-10-17T02:15:55.875Z,25.40
2022-10-17T02:18:27.338Z,25.50
2022-10-17T02:21:00.375Z,25.60
2022-10-17T02:23:32.406Z,25.60
2022-10-17T02:26:08.130Z,25.70
2022-10-17T02:28:41.184Z,25.80
2022-10-17T02:31:14.745Z,25.80
2022-10-17T02:33:46.270Z,25.90
2022-10-17T02:36:19.319Z,26.10
2022-10-17T02:38:54.481Z,26.10
2022-10-17T02:41:26.899Z,26.20
2022-10-17T02:44:00.221Z,26.20
2022-10-17T02:46:31.061Z,26.30
2022-10-17T02:49:02.875Z,26.40
2022-10-17T02:51:34.603Z,26.50
2022-10-17T02:54:08.044Z,26.60
2022-10-17T02:56:41.197Z,26.70
2022-10-17T02:59:13.843Z,26.80
2022-10-17T03:01:45.074Z,26.90
2022-10-17T03:04:17.414Z,27.00
2022-10-17T03:06:49.736Z,27.10
2022-10-17T03:09:20.441Z,27.30
2022-10-17T03:11:52.247Z,27.40
2022-10-17T03:14:23.039Z,27.50
2022-10-17T03:16:53.934Z,27.60
2022-10-17T03:19:24.911Z,27.70
2022-10-17T03:21:56.040Z,27.80
2022-10-17T03:24:26.550Z,27.80
2022-10-17T03:26:58.034Z,27.90
2022-10-17T03:29:28.869Z,28.00
2022-10-17T03:31:59.712Z,28.10
2022-10-17T03:34:30.290Z,28.20
2022-10-17T03:37:00.799Z,28.30
2022-10-17T03:39:31.512Z,28.40
2022-10-17T03:42:02.109Z,28.40
2022-10-17T03:44:32.798Z,28.40
2022-10-17T03:47:03.413Z,28.50
2022-10-17T03:49:34.017Z,28.50
2022-10-17T03:52:04.678Z,28.60
2022-10-17T03:54:36.006Z,28.60
2022-10-17T03:57:07.003Z,28.70
2022-10-17T03:59:37.586Z,28.70
2022-10-17T04:02:08.078Z,28.70
2022-10-17T04:04:38.591Z,28.70
2022-10-17T04:07:09.695Z,29.00
2022-10-17T04:09:40.430Z,28.80
2022-10-17T04:12:11.263Z,28.80
2022-10-17T04:14:42.144Z,29.10
2022-10-17T04:22:15.056Z,29.30
2022-10-17T04:24:46.426Z,29.40
2022-10-17T04:27:18.705Z,29.20
2022-10-17T04:39:56.500Z,28.80
2022-10-17T04:42:27.371Z,29.80
2022-10-17T04:44:58.141Z,29.70
2022-10-17T04:47:28.907Z,29.50
2022-10-17T04:49:59.556Z,29.60
2022-10-17T04:52:30.320Z,29.70
2022-10-17T04:55:02.948Z,29.70
2022-10-17T04:57:37.163Z,29.70
2022-10-17T05:02:40.741Z,29.80
2022-10-17T05:05:11.780Z,29.80
2022-10-17T05:07:43.536Z,29.70
2022-10-17T05:10:16.931Z,29.70
2022-10-17T05:12:49.573Z,29.70
2022-10-17T05:15:20.404Z,29.80
2022-10-17T05:17:51.639Z,29.80
2022-10-17T05:20:23.582Z,29.80
2022-10-17T05:22:54.465Z,29.80
2022-10-17T05:25:25.587Z,29.90
2022-10-17T05:27:57.546Z,30.00
2022-10-17T05:30:28.435Z,30.00
2022-10-17T05:32:59.051Z,29.90
2022-10-17T05:35:29.745Z,29.90
2022-10-17T05:38:04.387Z,29.80
2022-10-17T05:40:35.838Z,29.80
2022-10-17T05:43:06.354Z,29.90
2022-10-17T05:45:37.973Z,30.00
2022-10-17T05:48:10.106Z,30.00
2022-10-17T05:50:42.419Z,30.10
2022-10-17T05:53:16.325Z,30.10
2022-10-17T05:55:47.095Z,30.10
2022-10-17T05:58:22.476Z,30.10
2022-10-17T06:00:50.536Z,30.20
2022-10-17T06:03:22.384Z,30.20
2022-10-17T06:05:54.224Z,30.20
2022-10-17T06:08:25.878Z,30.20
2022-10-17T06:10:57.229Z,30.20
2022-10-17T06:21:12.978Z,30.50
2022-10-17T06:23:44.717Z,30.40
2022-10-17T06:26:15.261Z,30.50
2022-10-17T06:28:46.258Z,30.60
2022-10-17T06:31:21.224Z,30.60
2022-10-17T06:33:52.697Z,30.60
2022-10-17T06:36:26.377Z,30.70
2022-10-17T06:38:59.839Z,30.70
2022-10-17T06:41:30.549Z,30.60
2022-10-17T06:44:01.849Z,30.60
2022-10-17T06:46:35.358Z,30.60
2022-10-17T06:49:06.841Z,30.60
2022-10-17T06:51:44.781Z,30.60
2022-10-17T06:54:15.891Z,30.50
2022-10-17T06:56:46.654Z,30.50
2022-10-17T06:59:18.034Z,30.50
2022-10-17T07:01:48.698Z,30.50
2022-10-17T07:04:20.966Z,30.50
2022-10-17T07:06:54.516Z,30.40
2022-10-17T07:09:26.100Z,30.40
2022-10-17T07:11:56.755Z,30.40
2022-10-17T07:14:29.210Z,30.40
2022-10-17T07:17:02.712Z,30.40
2022-10-17T07:19:33.712Z,30.40
2022-10-17T07:22:04.432Z,30.40
2022-10-17T07:24:35.277Z,30.40
2022-10-17T07:27:07.865Z,30.40
2022-10-17T07:29:38.614Z,30.40
2022-10-17T07:32:09.756Z,30.40
2022-10-17T07:34:40.405Z,30.30
2022-10-17T07:37:12.538Z,30.30
2022-10-17T07:39:43.288Z,30.30
2022-10-17T07:42:15.609Z,30.30
2022-10-17T07:44:47.619Z,30.20
2022-10-17T07:47:18.144Z,30.20
2022-10-17T07:49:49.165Z,30.20
2022-10-17T07:52:20.500Z,30.20
2022-10-17T07:54:51.509Z,30.20
2022-10-17T07:57:22.028Z,30.20
2022-10-17T07:59:52.868Z,30.20
2022-10-17T08:02:26.058Z,30.20
2022-10-17T08:04:56.985Z,30.20
2022-10-17T08:07:29.453Z,30.20
2022-10-17T08:10:00.133Z,30.20
2022-10-17T08:12:32.632Z,30.20
2022-10-17T08:15:05.370Z,30.20
2022-10-17T08:17:38.415Z,30.20
2022-10-17T08:20:09.950Z,30.10
2022-10-17T08:22:40.901Z,30.10
2022-10-17T08:25:12.179Z,30.10
2022-10-17T08:27:43.014Z,30.10
2022-10-17T08:30:14.382Z,30.10
2022-10-17T08:32:46.240Z,30.00
2022-10-17T08:35:16.933Z,29.90
2022-10-17T08:37:47.527Z,29.90
2022-10-17T08:40:21.002Z,29.90
2022-10-17T08:43:01.551Z,30.00
2022-10-17T08:45:34.592Z,29.90
2022-10-17T08:48:08.065Z,30.00
2022-10-17T08:50:39.917Z,29.90
2022-10-17T08:53:13.714Z,29.90
2022-10-17T08:55:47.551Z,29.90
2022-10-17T08:58:21.395Z,29.90
2022-10-17T09:00:55.232Z,29.90
2022-10-17T09:03:30.886Z,29.80
2022-10-17T09:06:04.613Z,29.90
2022-10-17T09:08:38.907Z,29.80
2022-10-17T09:11:12.579Z,29.80
2022-10-17T09:13:44.751Z,29.70
2022-10-17T09:16:16.944Z,29.70
2022-10-17T09:18:50.627Z,29.70
2022-10-17T09:21:22.910Z,29.60
2022-10-17T09:24:03.981Z,29.60
2022-10-17T09:26:30.705Z,29.50
2022-10-17T09:29:04.543Z,29.50
2022-10-17T09:31:38.360Z,29.50
2022-10-17T09:34:11.543Z,29.40
2022-10-17T09:36:45.554Z,29.40
2022-10-17T09:39:17.031Z,29.40
2022-10-17T09:41:50.039Z,29.30
2022-10-17T09:44:23.597Z,29.30
2022-10-17T09:46:56.890Z,29.30
2022-10-17T09:49:30.307Z,29.30
2022-10-17T09:52:02.202Z,29.20
2022-10-17T09:54:35.749Z,29.20
2022-10-17T09:57:09.351Z,29.20
2022-10-17T09:59:42.615Z,29.20
2022-10-17T10:02:14.375Z,29.20
2022-10-17T10:05:03.745Z,29.20
2022-10-17T10:07:22.012Z,29.10
2022-10-17T10:09:54.053Z,29.10
2022-10-17T10:12:27.619Z,29.10
2022-10-17T10:14:59.132Z,29.00
2022-10-17T10:17:32.536Z,29.00
2022-10-17T10:20:09.511Z,29.00
2022-10-17T10:22:39.784Z,28.90
2022-10-17T10:25:13.439Z,28.90
2022-10-17T10:27:46.613Z,28.80
2022-10-17T10:30:22.754Z,28.80
2022-10-17T10:33:00.232Z,28.80
2022-10-17T10:35:32.963Z,28.80
2022-10-17T10:38:06.323Z,28.70
2022-10-17T10:40:39.553Z,28.70
2022-10-17T10:43:10.695Z,28.70
2022-10-17T10:45:48.986Z,28.60
2022-10-17T10:48:14.304Z,28.60
2022-10-17T10:50:45.754Z,28.60
2022-10-17T10:53:19.474Z,28.50
2022-10-17T10:55:52.627Z,28.50
2022-10-17T10:58:26.378Z,28.50
2022-10-17T11:00:58.852Z,28.40
2022-10-17T11:03:35.918Z,28.40
2022-10-17T11:06:09.119Z,28.30
2022-10-17T11:08:42.420Z,28.30
2022-10-17T11:11:17.118Z,28.30
2022-10-17T11:13:53.287Z,28.20
2022-10-17T11:16:23.571Z,28.20
2022-10-17T11:18:56.559Z,28.20
2022-10-17T11:21:30.082Z,28.10
2022-10-17T11:24:06.795Z,28.10
2022-10-17T11:26:37.782Z,28.10
2022-10-17T11:29:10.603Z,28.00
2022-10-17T11:31:44.316Z,28.00
2022-10-17T11:34:19.141Z,28.00
2022-10-17T11:36:53.971Z,28.00
2022-10-17T11:39:27.673Z,28.00
2022-10-17T11:42:04.200Z,27.90
2022-10-17T11:44:34.144Z,27.90
2022-10-17T11:47:07.457Z,27.90
2022-10-17T11:49:42.158Z,27.90
2022-10-17T11:52:19.476Z,27.80
2022-10-17T11:54:50.485Z,27.80
2022-10-17T11:57:24.419Z,27.80
2022-10-17T11:59:58.021Z,27.80
2022-10-17T12:02:31.726Z,27.80
2022-10-17T12:05:06.968Z,27.70
2022-10-17T12:07:40.547Z,27.70
2022-10-17T12:10:15.012Z,27.70
2022-10-17T12:12:45.704Z,27.70
2022-10-17T12:15:16.150Z,27.70
2022-10-17T12:17:50.444Z,27.70
2022-10-17T12:20:21.752Z,27.70
2022-10-17T12:22:57.798Z,27.70
2022-10-17T12:25:31.786Z,27.60
2022-10-17T12:28:04.872Z,27.60
2022-10-17T12:30:37.041Z,27.60
2022-10-17T12:33:11.147Z,27.60
2022-10-17T12:35:43.661Z,27.60
2022-10-17T12:38:17.025Z,27.60
2022-10-17T12:40:49.178Z,27.50
2022-10-17T12:43:22.404Z,27.50
2022-10-17T12:45:56.041Z,27.50
2022-10-17T12:48:32.149Z,27.50
2022-10-17T12:51:30.685Z,27.50
2022-10-17T12:53:38.137Z,27.40
2022-10-17T12:56:09.465Z,27.40
2022-10-17T12:58:41.541Z,27.40
2022-10-17T13:01:29.803Z,27.40
2022-10-17T13:03:49.108Z,27.40
2022-10-17T13:06:22.788Z,27.40
2022-10-17T13:08:59.796Z,27.40
2022-10-17T13:11:31.182Z,27.40
2022-10-17T13:14:04.561Z,27.40
2022-10-17T13:16:36.326Z,27.40
2022-10-17T13:19:09.555Z,27.40
2022-10-17T13:21:41.485Z,27.40
2022-10-17T13:24:57.977Z,27.40
2022-10-17T13:34:18.045Z,27.40
2022-10-17T13:36:51.947Z,27.40
2022-10-17T13:40:02.996Z,27.40
2022-10-17T13:49:11.953Z,27.30
2022-10-17T13:51:45.327Z,27.30
2022-10-17T13:55:17.534Z,27.30
2022-10-17T14:04:19.756Z,27.30
2022-10-17T14:18:40.487Z,27.20
2022-10-17T14:23:24.953Z,27.10
2022-10-17T14:50:08.327Z,27.00
2022-10-17T14:56:59.655Z,26.90
2022-10-17T14:59:52.670Z,26.90
2022-10-17T15:02:02.342Z,26.90
2022-10-17T15:04:35.661Z,26.80
2022-10-17T15:07:09.960Z,26.80
2022-10-17T15:09:40.665Z,26.80
2022-10-17T15:12:13.803Z,26.70
2022-10-17T15:14:44.687Z,26.70
2022-10-17T15:29:56.600Z,26.60
2022-10-17T15:32:30.074Z,26.60
2022-10-17T15:35:00.756Z,26.60
2022-10-17T15:37:33.828Z,26.50
2022-10-17T15:40:04.561Z,26.50
2022-10-17T15:42:35.251Z,26.50
2022-10-17T15:45:06.109Z,26.40
2022-10-17T15:47:37.417Z,26.40
2022-10-17T15:50:10.121Z,26.30
2022-10-17T15:52:40.834Z,26.30
2022-10-17T15:55:13.227Z,26.30
2022-10-17T15:57:47.435Z,26.30
2022-10-17T16:00:19.155Z,26.30
2022-10-17T16:02:51.596Z,26.30
2022-10-17T16:05:24.512Z,26.30
2022-10-17T16:07:58.607Z,26.30
2022-10-17T16:10:36.205Z,26.30
2022-10-17T16:13:08.312Z,26.20
2022-10-17T16:15:45.473Z,26.20
2022-10-17T16:18:15.446Z,26.20
2022-10-17T16:20:49.089Z,26.20
2022-10-17T16:23:19.702Z,26.00
2022-10-17T16:25:50.336Z,26.00
2022-10-17T16:28:20.854Z,26.00
2022-10-17T16:30:51.526Z,26.00
2022-10-17T16:33:23.432Z,26.00
2022-10-17T16:35:55.163Z,26.10
2022-10-17T16:38:26.003Z,26.10
2022-10-17T16:41:00.822Z,26.10
2022-10-17T16:43:32.259Z,26.00
2022-10-17T16:46:06.158Z,26.00
2022-10-17T16:48:37.592Z,25.90
2022-10-17T16:51:09.602Z,25.90
2022-10-17T16:53:41.595Z,25.90
2022-10-17T16:56:16.146Z,25.90
2022-10-17T16:58:51.457Z,25.90
2022-10-17T17:01:27.452Z,25.80
2022-10-17T17:03:58.707Z,25.80
2022-10-17T17:06:31.664Z,25.70
2022-10-17T17:09:02.633Z,25.70
2022-10-17T17:11:33.774Z,25.70
2022-10-17T17:14:04.723Z,25.70
2022-10-17T17:16:39.649Z,25.70
2022-10-17T17:19:12.805Z,25.70
2022-10-17T17:21:45.992Z,25.70
2022-10-17T17:24:20.852Z,25.60
2022-10-17T17:26:55.285Z,25.60
2022-10-17T17:29:27.061Z,25.60
2022-10-17T17:31:57.525Z,25.60
2022-10-17T17:34:28.239Z,25.60
2022-10-17T17:36:59.168Z,25.60
2022-10-17T17:39:29.662Z,25.60
2022-10-17T17:42:00.256Z,25.50
2022-10-17T17:44:38.434Z,25.50
2022-10-17T17:47:03.253Z,25.50
2022-10-17T17:49:36.806Z,25.50
2022-10-17T17:52:11.226Z,25.50
2022-10-17T17:54:41.791Z,25.50
2022-10-17T17:57:12.732Z,25.40
2022-10-17T17:59:43.451Z,25.40
2022-10-17T18:02:16.691Z,25.40
2022-10-17T18:04:46.549Z,25.40
2022-10-17T18:07:17.047Z,25.30
2022-10-17T18:09:47.743Z,25.30
2022-10-17T18:12:18.320Z,25.30
2022-10-17T18:14:55.260Z,25.30
2022-10-17T18:17:29.046Z,25.30
2022-10-17T18:20:03.860Z,25.20
2022-10-17T18:22:34.738Z,25.20
2022-10-17T18:25:09.458Z,25.20
2022-10-17T18:27:41.465Z,25.20
2022-10-17T18:30:12.668Z,25.20
2022-10-17T18:32:44.007Z,25.10
2022-10-17T18:35:14.763Z,25.10
2022-10-17T18:37:51.552Z,25.10
2022-10-17T18:40:28.206Z,25.00
2022-10-17T18:43:00.533Z,25.10
2022-10-17T18:45:35.419Z,25.00
2022-10-17T18:48:08.602Z,25.00
2022-10-17T18:50:42.780Z,25.00
2022-10-17T18:53:13.308Z,25.00
2022-10-17T18:58:16.908Z,25.00
2022-10-17T19:00:47.966Z,24.90
2022-10-17T19:03:19.094Z,24.90
2022-10-17T19:05:49.838Z,24.90
2022-10-17T19:08:39.939Z,24.90
2022-10-17T19:11:11.517Z,24.80
2022-10-17T19:16:18.898Z,24.80
2022-10-17T19:18:52.078Z,24.80
2022-10-17T19:21:23.612Z,24.80
2022-10-17T19:23:57.179Z,24.70
2022-10-17T19:26:32.739Z,24.70
2022-10-17T19:29:05.660Z,24.70
2022-10-17T19:31:38.011Z,24.70
2022-10-17T19:34:08.691Z,24.60
2022-10-17T19:36:39.729Z,24.60
2022-10-17T19:39:13.441Z,24.80
2022-10-17T19:44:15.339Z,24.60
2022-10-17T19:46:47.438Z,24.50
2022-10-17T19:49:19.396Z,24.50
2022-10-17T19:51:50.050Z,24.50
2022-10-17T19:54:21.468Z,24.50
2022-10-17T19:56:52.129Z,24.80
2022-10-17T20:01:53.434Z,24.50
2022-10-17T20:04:25.085Z,24.50
2022-10-17T20:06:57.214Z,23.40
2022-10-17T20:12:01.352Z,24.20
2022-10-17T20:14:32.049Z,24.60
2022-10-17T20:17:02.805Z,24.80
2022-10-17T20:19:35.289Z,24.30
2022-10-17T20:22:06.023Z,24.20
2022-10-17T20:24:36.531Z,24.30
2022-10-17T20:27:07.179Z,24.40
2022-10-17T20:29:37.914Z,24.40
2022-10-17T20:32:08.992Z,24.40
2022-10-17T20:34:40.494Z,24.10
2022-10-17T20:37:13.019Z,24.30
2022-10-17T20:39:44.795Z,24.10
2022-10-17T20:42:15.630Z,24.10
2022-10-17T20:44:46.802Z,24.10
2022-10-17T20:47:39.991Z,24.00
2022-10-17T20:49:50.380Z,24.00
2022-10-17T20:52:24.140Z,24.10
2022-10-17T20:54:54.846Z,24.00
2022-10-17T20:57:25.690Z,24.10
2022-10-17T20:59:56.521Z,24.00
2022-10-17T21:02:27.145Z,24.00
2022-10-17T21:04:57.804Z,23.90
2022-10-17T21:07:28.532Z,23.90
2022-10-17T21:10:07.654Z,23.90
2022-10-17T21:12:42.755Z,23.90
2022-10-17T21:15:03.166Z,23.80
2022-10-17T21:17:34.087Z,23.80
2022-10-17T21:20:04.802Z,23.70
2022-10-17T21:22:37.391Z,23.70
2022-10-17T21:25:08.599Z,23.70
2022-10-17T21:27:39.300Z,23.60
2022-10-17T21:30:10.938Z,23.70
2022-10-17T21:32:55.325Z,23.70
2022-10-17T21:35:13.485Z,23.70
2022-10-17T21:37:46.079Z,23.70
2022-10-17T21:40:18.217Z,23.70
2022-10-17T21:42:48.977Z,23.70
2022-10-17T21:45:25.885Z,23.60
2022-10-17T21:48:11.615Z,23.60
2022-10-17T21:50:24.414Z,23.50
2022-10-17T21:52:55.018Z,23.40
2022-10-17T21:55:25.614Z,23.40
2022-10-17T21:57:56.334Z,23.40
2022-10-17T22:00:26.985Z,23.30
2022-10-17T22:02:57.594Z,23.30
2022-10-17T22:05:28.280Z,23.30
2022-10-17T22:07:58.785Z,23.20
2022-10-17T22:10:29.300Z,23.20
2022-10-17T22:12:59.838Z,23.20
2022-10-17T22:15:31.271Z,23.20
2022-10-17T22:18:01.805Z,23.30
2022-10-17T22:20:32.498Z,23.30
2022-10-17T22:23:03.163Z,23.40
2022-10-17T22:25:33.812Z,23.40
2022-10-17T22:28:04.521Z,23.40
2022-10-17T22:30:35.340Z,23.40
2022-10-17T22:33:06.018Z,23.40
2022-10-17T22:35:36.609Z,23.40
2022-10-17T22:38:07.430Z,23.40
2022-10-17T22:40:38.038Z,23.30
2022-10-17T22:43:08.852Z,23.30
2022-10-17T22:45:39.854Z,23.20
2022-10-17T22:48:12.898Z,23.10
2022-10-17T22:50:43.589Z,23.10
2022-10-17T22:53:14.512Z,23.10
2022-10-17T22:55:45.006Z,23.10
2022-10-17T22:58:15.678Z,23.10
2022-10-17T23:00:46.163Z,23.10
2022-10-17T23:03:16.863Z,23.10
2022-10-17T23:05:48.168Z,23.00
2022-10-17T23:08:19.596Z,23.10
2022-10-17T23:10:50.800Z,23.10
2022-10-17T23:13:25.321Z,23.10
2022-10-17T23:15:57.472Z,23.10
2022-10-17T23:21:00.154Z,22.90
2022-10-17T23:23:30.799Z,22.90
2022-10-17T23:26:03.840Z,22.90
2022-10-17T23:28:36.161Z,22.80
2022-10-17T23:31:09.317Z,22.80
2022-10-17T23:33:41.551Z,22.80
2022-10-17T23:36:14.069Z,22.80
2022-10-17T23:38:46.354Z,22.80
2022-10-17T23:41:18.277Z,22.80
2022-10-17T23:43:48.994Z,22.70
2022-10-17T23:46:19.549Z,22.70
2022-10-17T23:48:50.811Z,22.70
2022-10-17T23:51:23.042Z,22.70
2022-10-17T23:53:53.710Z,22.60
2022-10-17T23:56:24.337Z,22.70
2022-10-17T23:58:56.695Z,22.70
